sensor_id;sensor_type;location;lat;lon;timestamp;temperature;humidity
21861;DHT22;11095;48.066;8.540;2024-03-08T00:01:47;0.00;99.90
21861;DHT22;11095;48.066;8.540;2024-03-08T00:04:13;0.00;99.90
21861;DHT22;11095;48.066;8.540;2024-03-08T00:06:40;0.00;99.90
21861;DHT22;11095;48.066;8.540;2024-03-08T00:09:06;-0.10;99.90
21861;DHT22;11095;48.066;8.540;2024-03-08T00:11:33;-0.10;99.90
21861;DHT22;11095;48.066;8.540;2024-03-08T00:14:00;-0.10;99.90
21861;DHT22;11095;48.066;8.540;2024-03-08T00:16:25;0.00;99.90
21861;DHT22;11095;48.066;8.540;2024-03-08T00:18:51;0.00;99.90
21861;DHT22;11095;48.066;8.540;2024-03-08T00:21:16;0.10;99.90
21861;DHT22;11095;48.066;8.540;2024-03-08T00:23:42;0.10;99.90
21861;DHT22;11095;48.066;8.540;2024-03-08T00:26:08;0.10;99.90
21861;DHT22;11095;48.066;8.540;2024-03-08T00:28:33;0.10;99.90
21861;DHT22;11095;48.066;8.540;2024-03-08T00:31:00;0.20;99.90
21861;DHT22;11095;48.066;8.540;2024-03-08T00:33:25;0.20;99.90
21861;DHT22;11095;48.066;8.540;2024-03-08T00:35:53;0.30;99.90
21861;DHT22;11095;48.066;8.540;2024-03-08T00:38:19;0.30;99.90
21861;DHT22;11095;48.066;8.540;2024-03-08T00:40:45;0.30;99.90
21861;DHT22;11095;48.066;8.540;2024-03-08T00:43:10;0.30;99.90
21861;DHT22;11095;48.066;8.540;2024-03-08T00:45:36;0.30;99.90
21861;DHT22;11095;48.066;8.540;2024-03-08T00:48:03;0.30;99.90
21861;DHT22;11095;48.066;8.540;2024-03-08T00:50:28;0.30;99.90
21861;DHT22;11095;48.066;8.540;2024-03-08T00:52:54;0.30;99.90
21861;DHT22;11095;48.066;8.540;2024-03-08T00:55:20;0.20;99.90
21861;DHT22;11095;48.066;8.540;2024-03-08T00:57:45;0.30;99.90
21861;DHT22;11095;48.066;8.540;2024-03-08T01:00:12;0.30;99.90
21861;DHT22;11095;48.066;8.540;2024-03-08T01:02:41;0.40;99.90
21861;DHT22;11095;48.066;8.540;2024-03-08T01:05:06;0.50;99.90
21861;DHT22;11095;48.066;8.540;2024-03-08T01:07:33;0.50;99.90
21861;DHT22;11095;48.066;8.540;2024-03-08T01:10:00;0.60;99.90
21861;DHT22;11095;48.066;8.540;2024-03-08T01:12:26;0.70;99.90
21861;DHT22;11095;48.066;8.540;2024-03-08T01:14:52;0.80;99.90
21861;DHT22;11095;48.066;8.540;2024-03-08T01:17:17;0.90;99.90
21861;DHT22;11095;48.066;8.540;2024-03-08T01:19:43;0.90;99.90
21861;DHT22;11095;48.066;8.540;2024-03-08T01:22:10;0.80;99.90
21861;DHT22;11095;48.066;8.540;2024-03-08T01:24:36;0.90;99.90
21861;DHT22;11095;48.066;8.540;2024-03-08T01:27:02;0.80;99.90
21861;DHT22;11095;48.066;8.540;2024-03-08T01:29:28;0.80;99.90
21861;DHT22;11095;48.066;8.540;2024-03-08T01:31:55;0.80;99.90
21861;DHT22;11095;48.066;8.540;2024-03-08T01:34:22;0.80;99.90
21861;DHT22;11095;48.066;8.540;2024-03-08T01:36:48;0.90;99.90
21861;DHT22;11095;48.066;8.540;2024-03-08T01:39:14;0.90;99.90
21861;DHT22;11095;48.066;8.540;2024-03-08T01:41:40;0.90;99.90
21861;DHT22;11095;48.066;8.540;2024-03-08T01:44:06;0.90;99.90
21861;DHT22;11095;48.066;8.540;2024-03-08T01:46:33;1.00;99.90
21861;DHT22;11095;48.066;8.540;2024-03-08T01:49:00;1.00;99.90
21861;DHT22;11095;48.066;8.540;2024-03-08T01:51:29;0.90;99.90
21861;DHT22;11095;48.066;8.540;2024-03-08T01:53:57;0.90;99.90
21861;DHT22;11095;48.066;8.540;2024-03-08T01:56:25;1.00;99.90
21861;DHT22;11095;48.066;8.540;2024-03-08T01:58:51;1.00;99.90
21861;DHT22;11095;48.066;8.540;2024-03-08T02:01:18;1.00;99.90
21861;DHT22;11095;48.066;8.540;2024-03-08T02:03:44;1.00;99.90
21861;DHT22;11095;48.066;8.540;2024-03-08T02:06:11;1.00;99.90
21861;DHT22;11095;48.066;8.540;2024-03-08T02:08:39;1.00;99.90
21861;DHT22;11095;48.066;8.540;2024-03-08T02:11:04;1.10;99.90
21861;DHT22;11095;48.066;8.540;2024-03-08T02:13:30;1.10;99.90
21861;DHT22;11095;48.066;8.540;2024-03-08T02:16:00;1.10;99.90
21861;DHT22;11095;48.066;8.540;2024-03-08T02:18:25;1.10;99.90
21861;DHT22;11095;48.066;8.540;2024-03-08T02:20:55;1.10;99.90
21861;DHT22;11095;48.066;8.540;2024-03-08T02:23:22;1.10;99.90
21861;DHT22;11095;48.066;8.540;2024-03-08T02:25:50;1.10;99.90
21861;DHT22;11095;48.066;8.540;2024-03-08T02:28:16;1.10;99.90
21861;DHT22;11095;48.066;8.540;2024-03-08T02:30:44;1.10;99.90
21861;DHT22;11095;48.066;8.540;2024-03-08T02:33:10;1.10;99.90
21861;DHT22;11095;48.066;8.540;2024-03-08T02:35:36;1.10;99.90
21861;DHT22;11095;48.066;8.540;2024-03-08T02:38:04;1.10;99.90
21861;DHT22;11095;48.066;8.540;2024-03-08T02:40:29;1.10;99.90
21861;DHT22;11095;48.066;8.540;2024-03-08T02:42:55;1.10;99.90
21861;DHT22;11095;48.066;8.540;2024-03-08T02:45:21;1.10;99.90
21861;DHT22;11095;48.066;8.540;2024-03-08T02:47:46;1.10;99.90
21861;DHT22;11095;48.066;8.540;2024-03-08T02:50:14;1.10;99.90
21861;DHT22;11095;48.066;8.540;2024-03-08T02:52:42;1.10;99.90
21861;DHT22;11095;48.066;8.540;2024-03-08T02:55:08;1.10;99.90
21861;DHT22;11095;48.066;8.540;2024-03-08T02:57:36;1.10;99.90
21861;DHT22;11095;48.066;8.540;2024-03-08T03:00:02;1.10;99.90
21861;DHT22;11095;48.066;8.540;2024-03-08T03:02:29;1.10;99.90
21861;DHT22;11095;48.066;8.540;2024-03-08T03:04:55;1.20;99.90
21861;DHT22;11095;48.066;8.540;2024-03-08T03:07:21;1.20;99.90
21861;DHT22;11095;48.066;8.540;2024-03-08T03:09:47;1.20;99.90
21861;DHT22;11095;48.066;8.540;2024-03-08T03:12:12;1.10;99.90
21861;DHT22;11095;48.066;8.540;2024-03-08T03:14:39;1.10;99.90
21861;DHT22;11095;48.066;8.540;2024-03-08T03:17:05;1.10;99.90
21861;DHT22;11095;48.066;8.540;2024-03-08T03:19:30;1.10;99.90
21861;DHT22;11095;48.066;8.540;2024-03-08T03:21:56;1.10;99.90
21861;DHT22;11095;48.066;8.540;2024-03-08T03:24:22;1.10;99.90
21861;DHT22;11095;48.066;8.540;2024-03-08T03:26:48;1.10;99.90
21861;DHT22;11095;48.066;8.540;2024-03-08T03:29:15;1.00;99.90
21861;DHT22;11095;48.066;8.540;2024-03-08T03:31:42;1.00;99.90
21861;DHT22;11095;48.066;8.540;2024-03-08T03:34:11;0.90;99.90
21861;DHT22;11095;48.066;8.540;2024-03-08T03:36:37;0.90;99.90
21861;DHT22;11095;48.066;8.540;2024-03-08T03:39:08;0.90;99.90
21861;DHT22;11095;48.066;8.540;2024-03-08T03:41:38;0.90;99.90
21861;DHT22;11095;48.066;8.540;2024-03-08T03:44:04;0.80;99.90
21861;DHT22;11095;48.066;8.540;2024-03-08T03:46:32;0.80;99.90
21861;DHT22;11095;48.066;8.540;2024-03-08T03:48:58;0.70;99.90
21861;DHT22;11095;48.066;8.540;2024-03-08T03:51:24;0.80;99.90
21861;DHT22;11095;48.066;8.540;2024-03-08T03:53:50;0.80;99.90
21861;DHT22;11095;48.066;8.540;2024-03-08T03:56:15;0.80;99.90
21861;DHT22;11095;48.066;8.540;2024-03-08T03:58:41;0.70;99.90
21861;DHT22;11095;48.066;8.540;2024-03-08T04:01:07;0.60;99.90
21861;DHT22;11095;48.066;8.540;2024-03-08T04:03:33;0.60;99.90
21861;DHT22;11095;48.066;8.540;2024-03-08T04:05:58;0.70;99.90
21861;DHT22;11095;48.066;8.540;2024-03-08T04:08:24;0.70;99.90
21861;DHT22;11095;48.066;8.540;2024-03-08T04:10:50;0.70;99.90
21861;DHT22;11095;48.066;8.540;2024-03-08T04:13:16;0.60;99.90
21861;DHT22;11095;48.066;8.540;2024-03-08T04:15:42;0.70;99.90
21861;DHT22;11095;48.066;8.540;2024-03-08T04:18:10;0.70;99.90
21861;DHT22;11095;48.066;8.540;2024-03-08T04:20:36;0.70;99.90
21861;DHT22;11095;48.066;8.540;2024-03-08T04:23:02;0.80;99.90
21861;DHT22;11095;48.066;8.540;2024-03-08T04:25:27;0.70;99.90
21861;DHT22;11095;48.066;8.540;2024-03-08T04:27:53;0.70;99.90
21861;DHT22;11095;48.066;8.540;2024-03-08T04:30:19;0.70;99.90
21861;DHT22;11095;48.066;8.540;2024-03-08T04:32:46;0.70;99.90
21861;DHT22;11095;48.066;8.540;2024-03-08T04:35:12;0.70;99.90
21861;DHT22;11095;48.066;8.540;2024-03-08T04:37:38;0.80;99.90
21861;DHT22;11095;48.066;8.540;2024-03-08T04:40:05;0.70;99.90
21861;DHT22;11095;48.066;8.540;2024-03-08T04:42:31;0.70;99.90
21861;DHT22;11095;48.066;8.540;2024-03-08T04:44:58;0.70;99.90
21861;DHT22;11095;48.066;8.540;2024-03-08T04:47:24;0.70;99.90
21861;DHT22;11095;48.066;8.540;2024-03-08T04:49:50;0.70;99.90
21861;DHT22;11095;48.066;8.540;2024-03-08T04:52:15;0.70;99.90
21861;DHT22;11095;48.066;8.540;2024-03-08T04:54:41;0.80;99.90
21861;DHT22;11095;48.066;8.540;2024-03-08T04:57:07;0.80;99.90
21861;DHT22;11095;48.066;8.540;2024-03-08T04:59:33;0.80;99.90
21861;DHT22;11095;48.066;8.540;2024-03-08T05:01:58;0.70;99.90
21861;DHT22;11095;48.066;8.540;2024-03-08T05:04:24;0.70;99.90
21861;DHT22;11095;48.066;8.540;2024-03-08T05:06:50;0.70;99.90
21861;DHT22;11095;48.066;8.540;2024-03-08T05:09:16;0.80;99.90
21861;DHT22;11095;48.066;8.540;2024-03-08T05:11:43;0.70;99.90
21861;DHT22;11095;48.066;8.540;2024-03-08T05:14:10;0.70;99.90
21861;DHT22;11095;48.066;8.540;2024-03-08T05:16:36;0.70;99.90
21861;DHT22;11095;48.066;8.540;2024-03-08T05:19:02;0.70;99.90
21861;DHT22;11095;48.066;8.540;2024-03-08T05:21:27;0.60;99.90
21861;DHT22;11095;48.066;8.540;2024-03-08T05:23:54;0.60;99.90
21861;DHT22;11095;48.066;8.540;2024-03-08T05:26:20;0.60;99.90
21861;DHT22;11095;48.066;8.540;2024-03-08T05:28:47;0.50;99.90
21861;DHT22;11095;48.066;8.540;2024-03-08T05:31:21;0.60;99.90
21861;DHT22;11095;48.066;8.540;2024-03-08T05:33:49;0.50;99.90
21861;DHT22;11095;48.066;8.540;2024-03-08T05:36:15;0.50;99.90
21861;DHT22;11095;48.066;8.540;2024-03-08T05:38:43;0.50;99.90
21861;DHT22;11095;48.066;8.540;2024-03-08T05:41:09;0.60;99.90
21861;DHT22;11095;48.066;8.540;2024-03-08T05:43:35;0.50;99.90
21861;DHT22;11095;48.066;8.540;2024-03-08T05:46:00;0.50;99.90
21861;DHT22;11095;48.066;8.540;2024-03-08T05:48:26;0.60;99.90
21861;DHT22;11095;48.066;8.540;2024-03-08T05:50:51;0.50;99.90
21861;DHT22;11095;48.066;8.540;2024-03-08T05:53:17;0.50;99.90
21861;DHT22;11095;48.066;8.540;2024-03-08T05:55:42;0.50;99.90
21861;DHT22;11095;48.066;8.540;2024-03-08T05:58:09;0.50;99.90
21861;DHT22;11095;48.066;8.540;2024-03-08T06:00:34;0.60;99.90
21861;DHT22;11095;48.066;8.540;2024-03-08T06:03:02;0.60;99.90
21861;DHT22;11095;48.066;8.540;2024-03-08T06:05:28;0.60;99.90
21861;DHT22;11095;48.066;8.540;2024-03-08T06:07:53;0.60;99.90
21861;DHT22;11095;48.066;8.540;2024-03-08T06:10:19;0.60;99.90
21861;DHT22;11095;48.066;8.540;2024-03-08T06:12:45;0.60;99.90
21861;DHT22;11095;48.066;8.540;2024-03-08T06:15:11;0.60;99.90
21861;DHT22;11095;48.066;8.540;2024-03-08T06:17:40;0.60;99.90
21861;DHT22;11095;48.066;8.540;2024-03-08T06:20:06;0.70;99.90
21861;DHT22;11095;48.066;8.540;2024-03-08T06:22:42;0.70;99.90
21861;DHT22;11095;48.066;8.540;2024-03-08T06:25:08;0.70;99.90
21861;DHT22;11095;48.066;8.540;2024-03-08T06:27:36;0.70;99.90
21861;DHT22;11095;48.066;8.540;2024-03-08T06:30:02;0.70;99.90
21861;DHT22;11095;48.066;8.540;2024-03-08T06:32:30;0.80;99.90
21861;DHT22;11095;48.066;8.540;2024-03-08T06:34:56;0.70;99.90
21861;DHT22;11095;48.066;8.540;2024-03-08T06:37:21;0.70;99.90
21861;DHT22;11095;48.066;8.540;2024-03-08T06:39:50;0.70;99.90
21861;DHT22;11095;48.066;8.540;2024-03-08T06:42:17;0.60;99.90
21861;DHT22;11095;48.066;8.540;2024-03-08T06:44:42;0.60;99.90
21861;DHT22;11095;48.066;8.540;2024-03-08T06:47:15;0.60;99.90
21861;DHT22;11095;48.066;8.540;2024-03-08T06:49:46;0.60;99.90
21861;DHT22;11095;48.066;8.540;2024-03-08T06:52:12;0.50;99.90
21861;DHT22;11095;48.066;8.540;2024-03-08T06:54:37;0.60;99.90
21861;DHT22;11095;48.066;8.540;2024-03-08T06:57:04;0.60;99.90
21861;DHT22;11095;48.066;8.540;2024-03-08T06:59:33;0.70;99.90
21861;DHT22;11095;48.066;8.540;2024-03-08T07:02:01;0.70;99.90
21861;DHT22;11095;48.066;8.540;2024-03-08T07:04:27;0.80;99.90
21861;DHT22;11095;48.066;8.540;2024-03-08T07:06:55;0.80;99.90
21861;DHT22;11095;48.066;8.540;2024-03-08T07:09:21;0.90;99.90
21861;DHT22;11095;48.066;8.540;2024-03-08T07:11:46;0.90;99.90
21861;DHT22;11095;48.066;8.540;2024-03-08T07:14:12;1.00;99.90
21861;DHT22;11095;48.066;8.540;2024-03-08T07:16:40;1.00;99.90
21861;DHT22;11095;48.066;8.540;2024-03-08T07:19:07;1.10;99.90
21861;DHT22;11095;48.066;8.540;2024-03-08T07:21:32;1.20;99.90
21861;DHT22;11095;48.066;8.540;2024-03-08T07:23:58;1.20;99.90
21861;DHT22;11095;48.066;8.540;2024-03-08T07:26:26;1.30;99.90
21861;DHT22;11095;48.066;8.540;2024-03-08T07:28:52;1.40;99.90
21861;DHT22;11095;48.066;8.540;2024-03-08T07:31:20;1.40;99.90
21861;DHT22;11095;48.066;8.540;2024-03-08T07:33:52;1.40;99.90
21861;DHT22;11095;48.066;8.540;2024-03-08T07:36:19;1.40;99.90
21861;DHT22;11095;48.066;8.540;2024-03-08T07:38:44;1.40;99.90
21861;DHT22;11095;48.066;8.540;2024-03-08T07:41:12;1.40;99.90
21861;DHT22;11095;48.066;8.540;2024-03-08T07:43:38;1.50;99.90
21861;DHT22;11095;48.066;8.540;2024-03-08T07:46:04;1.50;99.90
21861;DHT22;11095;48.066;8.540;2024-03-08T07:48:29;1.50;99.90
21861;DHT22;11095;48.066;8.540;2024-03-08T07:50:56;1.50;99.90
21861;DHT22;11095;48.066;8.540;2024-03-08T07:53:22;1.60;99.90
21861;DHT22;11095;48.066;8.540;2024-03-08T07:55:49;1.60;99.90
21861;DHT22;11095;48.066;8.540;2024-03-08T07:58:15;1.60;99.90
21861;DHT22;11095;48.066;8.540;2024-03-08T08:00:41;1.60;99.90
21861;DHT22;11095;48.066;8.540;2024-03-08T08:03:08;1.60;99.90
21861;DHT22;11095;48.066;8.540;2024-03-08T08:05:34;1.70;99.90
21861;DHT22;11095;48.066;8.540;2024-03-08T08:08:02;1.80;99.90
21861;DHT22;11095;48.066;8.540;2024-03-08T08:10:31;1.80;99.90
21861;DHT22;11095;48.066;8.540;2024-03-08T08:12:58;1.80;99.90
21861;DHT22;11095;48.066;8.540;2024-03-08T08:15:24;1.90;99.90
21861;DHT22;11095;48.066;8.540;2024-03-08T08:17:49;2.00;99.90
21861;DHT22;11095;48.066;8.540;2024-03-08T08:20:17;2.00;99.90
21861;DHT22;11095;48.066;8.540;2024-03-08T08:22:43;2.10;99.90
21861;DHT22;11095;48.066;8.540;2024-03-08T08:25:09;2.10;99.90
21861;DHT22;11095;48.066;8.540;2024-03-08T08:27:38;2.20;99.90
21861;DHT22;11095;48.066;8.540;2024-03-08T08:30:10;2.30;99.90
21861;DHT22;11095;48.066;8.540;2024-03-08T08:32:37;2.30;99.90
21861;DHT22;11095;48.066;8.540;2024-03-08T08:35:03;2.30;99.90
21861;DHT22;11095;48.066;8.540;2024-03-08T08:37:32;2.30;99.90
21861;DHT22;11095;48.066;8.540;2024-03-08T08:40:01;2.20;99.90
21861;DHT22;11095;48.066;8.540;2024-03-08T08:42:31;2.10;99.90
21861;DHT22;11095;48.066;8.540;2024-03-08T08:44:56;2.10;99.90
21861;DHT22;11095;48.066;8.540;2024-03-08T08:47:23;2.20;99.90
21861;DHT22;11095;48.066;8.540;2024-03-08T08:49:48;2.40;99.90
21861;DHT22;11095;48.066;8.540;2024-03-08T08:52:16;2.50;99.90
21861;DHT22;11095;48.066;8.540;2024-03-08T08:54:42;2.60;99.90
21861;DHT22;11095;48.066;8.540;2024-03-08T08:57:08;2.60;99.90
21861;DHT22;11095;48.066;8.540;2024-03-08T08:59:34;2.50;99.90
21861;DHT22;11095;48.066;8.540;2024-03-08T09:02:06;2.50;99.90
21861;DHT22;11095;48.066;8.540;2024-03-08T09:04:32;2.40;99.90
21861;DHT22;11095;48.066;8.540;2024-03-08T09:06:57;2.30;99.90
21861;DHT22;11095;48.066;8.540;2024-03-08T09:09:23;2.20;99.90
21861;DHT22;11095;48.066;8.540;2024-03-08T09:11:51;2.30;99.90
21861;DHT22;11095;48.066;8.540;2024-03-08T09:14:16;2.40;99.90
21861;DHT22;11095;48.066;8.540;2024-03-08T09:16:42;2.60;99.90
21861;DHT22;11095;48.066;8.540;2024-03-08T09:19:08;2.90;99.90
21861;DHT22;11095;48.066;8.540;2024-03-08T09:21:36;3.20;99.90
21861;DHT22;11095;48.066;8.540;2024-03-08T09:24:01;3.40;99.90
21861;DHT22;11095;48.066;8.540;2024-03-08T09:26:27;3.50;99.90
21861;DHT22;11095;48.066;8.540;2024-03-08T09:28:53;3.60;99.90
21861;DHT22;11095;48.066;8.540;2024-03-08T09:31:20;3.70;99.90
21861;DHT22;11095;48.066;8.540;2024-03-08T09:33:46;3.70;99.90
21861;DHT22;11095;48.066;8.540;2024-03-08T09:36:13;3.70;99.90
21861;DHT22;11095;48.066;8.540;2024-03-08T09:38:39;3.70;99.90
21861;DHT22;11095;48.066;8.540;2024-03-08T09:41:05;3.70;99.90
21861;DHT22;11095;48.066;8.540;2024-03-08T09:43:31;3.80;99.90
21861;DHT22;11095;48.066;8.540;2024-03-08T09:45:57;3.90;99.90
21861;DHT22;11095;48.066;8.540;2024-03-08T09:48:23;4.20;99.90
21861;DHT22;11095;48.066;8.540;2024-03-08T09:50:49;4.40;99.90
21861;DHT22;11095;48.066;8.540;2024-03-08T09:53:15;4.30;99.90
21861;DHT22;11095;48.066;8.540;2024-03-08T09:55:42;4.30;99.90
21861;DHT22;11095;48.066;8.540;2024-03-08T09:58:11;4.30;99.90
21861;DHT22;11095;48.066;8.540;2024-03-08T10:00:49;4.30;99.90
21861;DHT22;11095;48.066;8.540;2024-03-08T10:03:14;4.30;99.90
21861;DHT22;11095;48.066;8.540;2024-03-08T10:05:43;4.40;99.90
21861;DHT22;11095;48.066;8.540;2024-03-08T10:08:12;4.60;99.90
21861;DHT22;11095;48.066;8.540;2024-03-08T10:10:39;4.80;99.90
21861;DHT22;11095;48.066;8.540;2024-03-08T10:13:08;5.00;99.90
21861;DHT22;11095;48.066;8.540;2024-03-08T10:15:35;5.20;99.90
21861;DHT22;11095;48.066;8.540;2024-03-08T10:18:01;5.30;99.90
21861;DHT22;11095;48.066;8.540;2024-03-08T10:20:30;5.50;99.90
21861;DHT22;11095;48.066;8.540;2024-03-08T10:22:59;5.40;99.90
21861;DHT22;11095;48.066;8.540;2024-03-08T10:25:26;5.60;99.90
21861;DHT22;11095;48.066;8.540;2024-03-08T10:27:51;5.80;99.90
21861;DHT22;11095;48.066;8.540;2024-03-08T10:30:17;6.00;99.90
21861;DHT22;11095;48.066;8.540;2024-03-08T10:32:47;6.10;99.90
21861;DHT22;11095;48.066;8.540;2024-03-08T10:35:13;6.20;99.90
21861;DHT22;11095;48.066;8.540;2024-03-08T10:37:51;6.00;99.90
21861;DHT22;11095;48.066;8.540;2024-03-08T10:40:28;5.40;99.90
21861;DHT22;11095;48.066;8.540;2024-03-08T10:45:30;5.00;99.90
21861;DHT22;11095;48.066;8.540;2024-03-08T10:50:38;6.00;99.90
21861;DHT22;11095;48.066;8.540;2024-03-08T10:53:06;6.30;99.90
21861;DHT22;11095;48.066;8.540;2024-03-08T10:55:33;7.00;99.90
21861;DHT22;11095;48.066;8.540;2024-03-08T10:58:02;6.70;99.90
21861;DHT22;11095;48.066;8.540;2024-03-08T11:00:27;7.00;99.90
21861;DHT22;11095;48.066;8.540;2024-03-08T11:02:56;7.00;99.90
21861;DHT22;11095;48.066;8.540;2024-03-08T11:05:38;6.70;99.90
21861;DHT22;11095;48.066;8.540;2024-03-08T11:08:20;6.70;99.90
21861;DHT22;11095;48.066;8.540;2024-03-08T11:10:53;6.90;99.90
21861;DHT22;11095;48.066;8.540;2024-03-08T11:16:01;7.40;99.90
21861;DHT22;11095;48.066;8.540;2024-03-08T11:18:32;7.30;99.90
21861;DHT22;11095;48.066;8.540;2024-03-08T11:20:58;6.90;99.90
21861;DHT22;11095;48.066;8.540;2024-03-08T11:23:27;6.90;99.90
21861;DHT22;11095;48.066;8.540;2024-03-08T11:25:56;6.60;99.90
21861;DHT22;11095;48.066;8.540;2024-03-08T11:28:25;6.40;99.90
21861;DHT22;11095;48.066;8.540;2024-03-08T11:33:31;6.00;99.90
21861;DHT22;11095;48.066;8.540;2024-03-08T11:36:13;5.70;99.90
21861;DHT22;11095;48.066;8.540;2024-03-08T11:38:48;5.70;99.90
21861;DHT22;11095;48.066;8.540;2024-03-08T11:41:14;5.70;99.90
21861;DHT22;11095;48.066;8.540;2024-03-08T11:43:40;5.80;99.90
21861;DHT22;11095;48.066;8.540;2024-03-08T11:46:10;5.90;99.90
21861;DHT22;11095;48.066;8.540;2024-03-08T11:48:39;5.90;99.90
21861;DHT22;11095;48.066;8.540;2024-03-08T11:51:07;5.90;99.90
21861;DHT22;11095;48.066;8.540;2024-03-08T11:53:33;5.50;99.90
21861;DHT22;11095;48.066;8.540;2024-03-08T11:56:12;5.40;99.90
21861;DHT22;11095;48.066;8.540;2024-03-08T11:58:38;5.60;99.90
21861;DHT22;11095;48.066;8.540;2024-03-08T12:01:06;5.70;99.90
21861;DHT22;11095;48.066;8.540;2024-03-08T12:03:33;5.80;99.90
21861;DHT22;11095;48.066;8.540;2024-03-08T12:06:00;5.80;99.90
21861;DHT22;11095;48.066;8.540;2024-03-08T12:08:26;5.80;99.90
21861;DHT22;11095;48.066;8.540;2024-03-08T12:10:55;6.00;99.90
21861;DHT22;11095;48.066;8.540;2024-03-08T12:13:27;6.00;99.90
21861;DHT22;11095;48.066;8.540;2024-03-08T12:16:00;6.20;99.90
21861;DHT22;11095;48.066;8.540;2024-03-08T12:18:29;6.20;99.90
21861;DHT22;11095;48.066;8.540;2024-03-08T12:21:08;6.40;99.90
21861;DHT22;11095;48.066;8.540;2024-03-08T12:23:37;6.60;99.90
21861;DHT22;11095;48.066;8.540;2024-03-08T12:26:18;6.80;99.90
21861;DHT22;11095;48.066;8.540;2024-03-08T12:28:48;6.80;99.90
21861;DHT22;11095;48.066;8.540;2024-03-08T12:31:18;6.80;99.90
21861;DHT22;11095;48.066;8.540;2024-03-08T12:33:53;6.80;99.90
21861;DHT22;11095;48.066;8.540;2024-03-08T12:36:21;6.90;99.90
21861;DHT22;11095;48.066;8.540;2024-03-08T12:38:47;7.10;99.90
21861;DHT22;11095;48.066;8.540;2024-03-08T12:41:17;7.20;99.90
21861;DHT22;11095;48.066;8.540;2024-03-08T12:43:44;7.40;99.90
21861;DHT22;11095;48.066;8.540;2024-03-08T12:46:19;7.40;99.90
21861;DHT22;11095;48.066;8.540;2024-03-08T12:48:51;7.50;99.90
21861;DHT22;11095;48.066;8.540;2024-03-08T12:51:20;7.60;99.90
21861;DHT22;11095;48.066;8.540;2024-03-08T12:53:46;7.60;99.90
21861;DHT22;11095;48.066;8.540;2024-03-08T12:56:13;7.60;99.90
21861;DHT22;11095;48.066;8.540;2024-03-08T12:58:39;7.70;99.90
21861;DHT22;11095;48.066;8.540;2024-03-08T13:01:06;7.80;99.90
21861;DHT22;11095;48.066;8.540;2024-03-08T13:03:35;7.90;99.90
21861;DHT22;11095;48.066;8.540;2024-03-08T13:06:06;7.90;99.90
21861;DHT22;11095;48.066;8.540;2024-03-08T13:08:35;7.90;99.90
21861;DHT22;11095;48.066;8.540;2024-03-08T13:11:01;7.90;99.90
21861;DHT22;11095;48.066;8.540;2024-03-08T13:13:29;8.10;99.90
21861;DHT22;11095;48.066;8.540;2024-03-08T13:15:54;8.20;99.90
21861;DHT22;11095;48.066;8.540;2024-03-08T13:18:22;8.30;99.90
21861;DHT22;11095;48.066;8.540;2024-03-08T13:20:48;8.30;99.90
21861;DHT22;11095;48.066;8.540;2024-03-08T13:23:17;8.40;99.90
21861;DHT22;11095;48.066;8.540;2024-03-08T13:25:43;8.20;99.90
21861;DHT22;11095;48.066;8.540;2024-03-08T13:28:09;8.00;99.90
21861;DHT22;11095;48.066;8.540;2024-03-08T13:30:34;8.00;99.90
21861;DHT22;11095;48.066;8.540;2024-03-08T13:33:00;8.10;99.90
21861;DHT22;11095;48.066;8.540;2024-03-08T13:35:26;8.30;99.90
21861;DHT22;11095;48.066;8.540;2024-03-08T13:37:53;8.30;99.90
21861;DHT22;11095;48.066;8.540;2024-03-08T13:40:19;8.40;99.90
21861;DHT22;11095;48.066;8.540;2024-03-08T13:42:46;8.50;99.90
21861;DHT22;11095;48.066;8.540;2024-03-08T13:45:12;8.30;99.90
21861;DHT22;11095;48.066;8.540;2024-03-08T13:47:38;8.50;99.90
21861;DHT22;11095;48.066;8.540;2024-03-08T13:50:08;8.40;99.90
21861;DHT22;11095;48.066;8.540;2024-03-08T13:52:37;8.40;99.90
21861;DHT22;11095;48.066;8.540;2024-03-08T13:55:04;8.50;99.90
21861;DHT22;11095;48.066;8.540;2024-03-08T13:57:30;8.70;99.90
21861;DHT22;11095;48.066;8.540;2024-03-08T13:59:57;8.80;99.90
21861;DHT22;11095;48.066;8.540;2024-03-08T14:02:23;8.90;99.90
21861;DHT22;11095;48.066;8.540;2024-03-08T14:04:53;9.00;99.90
21861;DHT22;11095;48.066;8.540;2024-03-08T14:07:22;8.80;99.90
21861;DHT22;11095;48.066;8.540;2024-03-08T14:09:49;8.80;99.90
21861;DHT22;11095;48.066;8.540;2024-03-08T14:12:15;8.80;99.90
21861;DHT22;11095;48.066;8.540;2024-03-08T14:14:44;9.00;99.90
21861;DHT22;11095;48.066;8.540;2024-03-08T14:17:10;8.70;99.90
21861;DHT22;11095;48.066;8.540;2024-03-08T14:19:36;8.60;99.90
21861;DHT22;11095;48.066;8.540;2024-03-08T14:22:02;8.70;99.90
21861;DHT22;11095;48.066;8.540;2024-03-08T14:24:30;8.80;99.90
21861;DHT22;11095;48.066;8.540;2024-03-08T14:26:56;8.90;99.90
21861;DHT22;11095;48.066;8.540;2024-03-08T14:29:25;8.70;99.90
21861;DHT22;11095;48.066;8.540;2024-03-08T14:31:54;8.60;99.90
21861;DHT22;11095;48.066;8.540;2024-03-08T14:34:22;8.50;99.90
21861;DHT22;11095;48.066;8.540;2024-03-08T14:36:51;8.50;99.90
21861;DHT22;11095;48.066;8.540;2024-03-08T14:39:17;8.30;99.90
21861;DHT22;11095;48.066;8.540;2024-03-08T14:41:49;8.30;99.90
21861;DHT22;11095;48.066;8.540;2024-03-08T14:44:20;8.40;99.90
21861;DHT22;11095;48.066;8.540;2024-03-08T14:46:46;8.40;99.90
21861;DHT22;11095;48.066;8.540;2024-03-08T14:49:12;8.30;99.90
21861;DHT22;11095;48.066;8.540;2024-03-08T14:51:38;8.30;99.90
21861;DHT22;11095;48.066;8.540;2024-03-08T14:54:03;8.20;99.90
21861;DHT22;11095;48.066;8.540;2024-03-08T14:56:32;8.30;99.90
21861;DHT22;11095;48.066;8.540;2024-03-08T14:58:58;8.30;99.90
21861;DHT22;11095;48.066;8.540;2024-03-08T15:01:25;8.30;99.90
21861;DHT22;11095;48.066;8.540;2024-03-08T15:03:57;8.50;99.90
21861;DHT22;11095;48.066;8.540;2024-03-08T15:06:28;8.50;99.90
21861;DHT22;11095;48.066;8.540;2024-03-08T15:08:56;8.70;99.90
21861;DHT22;11095;48.066;8.540;2024-03-08T15:11:23;8.60;99.90
21861;DHT22;11095;48.066;8.540;2024-03-08T15:13:50;8.30;99.90
21861;DHT22;11095;48.066;8.540;2024-03-08T15:16:19;8.40;99.90
21861;DHT22;11095;48.066;8.540;2024-03-08T15:18:46;8.40;99.90
21861;DHT22;11095;48.066;8.540;2024-03-08T15:21:15;8.50;99.90
21861;DHT22;11095;48.066;8.540;2024-03-08T15:23:45;8.40;99.90
21861;DHT22;11095;48.066;8.540;2024-03-08T15:26:17;8.20;99.90
21861;DHT22;11095;48.066;8.540;2024-03-08T15:28:43;8.20;99.90
21861;DHT22;11095;48.066;8.540;2024-03-08T15:31:10;8.10;99.90
21861;DHT22;11095;48.066;8.540;2024-03-08T15:33:38;7.90;99.90
21861;DHT22;11095;48.066;8.540;2024-03-08T15:36:14;7.90;99.90
21861;DHT22;11095;48.066;8.540;2024-03-08T15:38:41;7.80;99.90
21861;DHT22;11095;48.066;8.540;2024-03-08T15:41:09;7.80;99.90
21861;DHT22;11095;48.066;8.540;2024-03-08T15:43:41;7.80;99.90
21861;DHT22;11095;48.066;8.540;2024-03-08T15:46:08;7.70;99.90
21861;DHT22;11095;48.066;8.540;2024-03-08T15:48:34;7.70;99.90
21861;DHT22;11095;48.066;8.540;2024-03-08T15:51:06;7.60;99.90
21861;DHT22;11095;48.066;8.540;2024-03-08T15:53:33;7.60;99.90
21861;DHT22;11095;48.066;8.540;2024-03-08T15:56:01;7.50;99.90